Latest Weather Observations for Ocean Reef

IDW60901

Issued at 4:01 pm WST Monday 25 September 2017 (issued every 10 minutes, with the page automatically refreshed every 10 minutes)

About weather observations | Map of Perth area stations | Latest observations for Perth area | Other Formats
Station Details ID: 009214 Name: OCEAN REEF Lat: -31.76 Lon: 115.73 Height: 10.0 m
Data from the previous 72 hours. | See also: Recent months at Ocean Reef
Date/Time
WST
Temp
°C
App
Temp
°C
Dew
Point
°C
Rel
Hum
%
Delta-T
°C
Wind Press
QNH
hPa
Press
MSL
hPa
Rain since
9am
mm
Dir  Spd
km/h
Gust
km/h
Spd
kts
Gust
kts
25/04:00pm - - - - - SSW 32 39 17 21 - - -
25/03:30pm - - - - - S 35 41 19 22 - - -
25/03:00pm - - - - - SSW 28 33 15 18 - - -
25/02:30pm - - - - - SSW 28 32 15 17 - - -
25/02:00pm - - - - - SSW 20 26 11 14 - - -
25/01:30pm - - - - - SSW 24 32 13 17 - - -
25/01:00pm - - - - - SE 13 20 7 11 - - -
25/12:30pm - - - - - ESE 15 22 8 12 - - -
25/12:00pm - - - - - ESE 15 19 8 10 - - -
25/11:30am - - - - - SE 15 20 8 11 - - -
25/11:00am - - - - - SSE 11 15 6 8 - - -
25/10:30am - - - - - ESE 9 11 5 6 - - -
25/10:00am - - - - - NNE 13 19 7 10 - - -
25/09:30am - - - - - NE 15 22 8 12 - - -
25/09:00am - - - - - NE 17 26 9 14 - - -
25/08:30am - - - - - NNE 19 28 10 15 - - -
25/08:00am - - - - - NNE 24 30 13 16 - - -
25/07:30am - - - - - NNE 24 33 13 18 - - -
25/07:00am - - - - - NE 22 28 12 15 - - -
25/06:30am - - - - - NE 24 33 13 18 - - -
25/06:00am - - - - - NNE 20 26 11 14 - - -
25/05:30am - - - - - NNE 24 33 13 18 - - -
25/05:00am - - - - - NNE 22 32 12 17 - - -
25/04:30am - - - - - NNE 24 35 13 19 - - -
25/04:00am - - - - - NNE 24 33 13 18 - - -
25/03:30am - - - - - NNE 24 33 13 18 - - -
25/03:00am - - - - - NNE 28 35 15 19 - - -
25/02:30am - - - - - NNE 24 32 13 17 - - -
25/02:00am - - - - - NNE 24 32 13 17 - - -
25/01:30am - - - - - NNE 20 30 11 16 - - -
25/01:00am - - - - - NNE 24 32 13 17 - - -
25/12:30am - - - - - NNE 22 30 12 16 - - -
25/12:00am - - - - - NNE 20 30 11 16 - - -
 
Date/Time
WST
Temp
°C
App
Temp
°C
Dew
Point
°C
Rel
Hum
%
Delta-T
°C
Wind Press
QNH
hPa
Press
MSL
hPa
Rain since
9am
mm
Dir  Spd
km/h
Gust
km/h
Spd
kts
Gust
kts
24/11:30pm - - - - - NNE 24 30 13 16 - - -
24/11:00pm - - - - - NNE 24 30 13 16 - - -
24/10:30pm - - - - - NNE 17 26 9 14 - - -
24/10:00pm - - - - - NNE 17 28 9 15 - - -
24/09:30pm - - - - - NW 22 30 12 16 - - -
24/09:00pm - - - - - W 17 22 9 12 - - -
24/08:30pm - - - - - WSW 30 37 16 20 - - -
24/08:00pm - - - - - NW 33 43 18 23 - - -
24/07:50pm - - - - - NW 28 46 15 25 - - -
24/07:30pm - - - - - WNW 20 28 11 15 - - -
24/07:00pm - - - - - WNW 28 32 15 17 - - -
24/06:30pm - - - - - WNW 33 44 18 24 - - -
24/06:00pm - - - - - W 26 33 14 18 - - -
24/05:30pm - - - - - WNW 26 30 14 16 - - -
24/05:00pm - - - - - WNW 26 32 14 17 - - -
24/04:30pm - - - - - W 28 33 15 18 - - -
24/04:00pm - - - - - W 33 39 18 21 - - -
24/03:30pm - - - - - WNW 35 41 19 22 - - -
24/03:04pm - - - - - NNW 33 61 18 33 - - -
24/03:02pm - - - - - NNW 30 61 16 33 - - -
24/03:00pm - - - - - NNW 26 37 14 20 - - -
24/02:30pm - - - - - N 24 35 13 19 - - -
24/02:00pm - - - - - NNE 15 26 8 14 - - -
24/01:30pm - - - - - N 28 35 15 19 - - -
24/01:00pm - - - - - N 19 28 10 15 - - -
24/12:30pm - - - - - N 19 26 10 14 - - -
24/12:00pm - - - - - N 15 26 8 14 - - -
24/11:30am - - - - - N 19 32 10 17 - - -
24/11:00am - - - - - NNW 17 24 9 13 - - -
24/10:30am - - - - - NNW 15 20 8 11 - - -
24/10:00am - - - - - NNW 15 20 8 11 - - -
24/09:30am - - - - - NNW 13 17 7 9 - - -
24/09:00am - - - - - NNE 11 15 6 8 - - -
24/08:30am - - - - - NNE 15 22 8 12 - - -
24/08:00am - - - - - NE 15 19 8 10 - - -
24/07:30am - - - - - NE 17 20 9 11 - - -
24/07:00am - - - - - NE 17 22 9 12 - - -
24/06:30am - - - - - NE 17 20 9 11 - - -
24/06:00am - - - - - NNE 17 24 9 13 - - -
24/05:30am - - - - - NNE 19 26 10 14 - - -
24/05:00am - - - - - NNE 19 26 10 14 - - -
24/04:30am - - - - - NNE 15 20 8 11 - - -
24/04:00am - - - - - NE 19 26 10 14 - - -
24/03:30am - - - - - NE 15 19 8 10 - - -
24/03:00am - - - - - NE 15 19 8 10 - - -
24/02:30am - - - - - NE 15 20 8 11 - - -
24/02:00am - - - - - NNE 19 28 10 15 - - -
24/01:30am - - - - - NE 13 19 7 10 - - -
24/01:00am - - - - - NE 11 15 6 8 - - -
24/12:30am - - - - - NE 13 17 7 9 - - -
24/12:00am - - - - - NNE 9 11 5 6 - - -
 
Date/Time
WST
Temp
°C
App
Temp
°C
Dew
Point
°C
Rel
Hum
%
Delta-T
°C
Wind Press
QNH
hPa
Press
MSL
hPa
Rain since
9am
mm
Dir  Spd
km/h
Gust
km/h
Spd
kts
Gust
kts
23/11:30pm - - - - - NNW 11 19 6 10 - - -
23/11:00pm - - - - - N 13 17 7 9 - - -
23/10:30pm - - - - - NE 13 15 7 8 - - -
23/10:00pm - - - - - NNE 9 11 5 6 - - -
23/09:30pm - - - - - N 11 15 6 8 - - -
23/09:00pm - - - - - NNE 13 17 7 9 - - -
23/08:30pm - - - - - N 9 11 5 6 - - -
23/08:00pm - - - - - NW 11 15 6 8 - - -
23/07:30pm - - - - - WSW 15 24 8 13 - - -
23/07:00pm - - - - - WSW 20 28 11 15 - - -
23/06:30pm - - - - - WSW 15 20 8 11 - - -
23/06:00pm - - - - - SW 17 24 9 13 - - -
23/05:30pm - - - - - WSW 17 24 9 13 - - -
23/05:00pm - - - - - SW 17 24 9 13 - - -
23/04:30pm - - - - - WSW 19 24 10 13 - - -
23/04:00pm - - - - - WSW 19 24 10 13 - - -
23/03:30pm - - - - - WSW 20 28 11 15 - - -
23/03:00pm - - - - - WSW 20 26 11 14 - - -
23/02:30pm - - - - - SW 26 32 14 17 - - -
23/02:00pm - - - - - SSW 20 26 11 14 - - -
23/01:30pm - - - - - SW 22 28 12 15 - - -
23/01:00pm - - - - - SW 22 32 12 17 - - -
23/12:30pm - - - - - WSW 32 37 17 20 - - -
23/12:00pm - - - - - SW 26 33 14 18 - - -
23/11:30am - - - - - WSW 28 35 15 19 - - -
23/11:00am - - - - - SW 30 37 16 20 - - -
23/10:30am - - - - - SW 37 48 20 26 - - -
23/10:00am - - - - - SW 35 44 19 24 - - -
23/09:30am - - - - - WSW 33 41 18 22 - - -
23/09:00am - - - - - SW 35 46 19 25 - - -
23/08:30am - - - - - SW 37 48 20 26 - - -
23/08:28am - - - - - SW 37 48 20 26 - - -
23/08:00am - - - - - WSW 41 50 22 27 - - -
23/07:30am - - - - - WSW 37 48 20 26 - - -
23/07:00am - - - - - WSW 54 67 29 36 - - -
23/06:34am - - - - - SW 46 65 25 35 - - -
23/06:30am - - - - - WSW 48 65 26 35 - - -
23/06:25am - - - - - WSW 43 61 23 33 - - -
23/06:00am - - - - - WSW 33 44 18 24 - - -
23/05:30am - - - - - WSW 46 59 25 32 - - -
23/05:09am - - - - - WSW 41 52 22 28 - - -
23/05:07am - - - - - WSW 43 52 23 28 - - -
23/05:00am - - - - - W 44 52 24 28 - - -
23/04:30am - - - - - W 37 46 20 25 - - -
23/04:00am - - - - - WSW 37 48 20 26 - - -
23/03:30am - - - - - WSW 39 50 21 27 - - -
23/03:00am - - - - - SW 35 46 19 25 - - -
23/02:38am - - - - - WSW 35 57 19 31 - - -
23/02:30am - - - - - SW 32 39 17 21 - - -
23/02:00am - - - - - SW 35 48 19 26 - - -
23/01:30am - - - - - SW 39 50 21 27 - - -
23/01:15am - - - - - SW 39 50 21 27 - - -
23/01:00am - - - - - WSW 43 50 23 27 - - -
23/12:30am - - - - - WSW 44 56 24 30 - - -
23/12:00am - - - - - WSW 37 52 20 28 - - -
 
Date/Time
WST
Temp
°C
App
Temp
°C
Dew
Point
°C
Rel
Hum
%
Delta-T
°C
Wind Press
QNH
hPa
Press
MSL
hPa
Rain since
9am
mm
Dir  Spd
km/h
Gust
km/h
Spd
kts
Gust
kts
22/11:30pm - - - - - WSW 37 50 20 27 - - -
22/11:00pm - - - - - WSW 39 50 21 27 - - -
22/10:30pm - - - - - WSW 39 50 21 27 - - -
22/10:00pm - - - - - WSW 44 52 24 28 - - -
22/09:30pm - - - - - WSW 39 46 21 25 - - -
22/09:00pm - - - - - WSW 43 52 23 28 - - -
22/08:30pm - - - - - WSW 39 52 21 28 - - -
22/08:00pm - - - - - WSW 43 50 23 27 - - -
22/07:30pm - - - - - WSW 43 54 23 29 - - -
22/07:00pm - - - - - W 46 54 25 29 - - -
22/06:30pm - - - - - W 50 57 27 31 - - -
22/06:00pm - - - - - W 50 59 27 32 - - -
22/05:30pm - - - - - W 54 65 29 35 - - -
22/05:00pm - - - - - W 56 65 30 35 - - -
22/04:30pm - - - - - W 56 69 30 37 - - -

Latest Capital City Observations: Canberra | Sydney | Melbourne | Brisbane | Adelaide | Perth | Hobart | Darwin

Other Formats:

Comma delimited format used in spreadsheet applications
http://www.bom.gov.au/fwo/IDW60901/IDW60901.94607.axf

JavaScript Object Notation format (JSON) in row-major order
http://www.bom.gov.au/fwo/IDW60901/IDW60901.94607.json